Back to Top

Language: 

My Weather Underground Personal Weather Station Historical Data with Graphs...

Delerius Weather Station Historical Data
Daily Summary for November 13, 2017 Units:  Metric    English   Both
« Previous Day
Next Day »
Daily Weekly Monthly Yearly Custom
  High: Low: Average:
Temperature: 7.6 °C 1.3 °C 4.7 °C
Dew Point: 5.7 °C -1.2 °C 1.2 °C
Humidity: 88 % 67 % 78 %
Wind Speed: 19.3 km/h 0 km/h 8 km/h
Wind Gust: 30.6 km/h - -
Wind:- - West
Pressure: 1027 hPa 1020.2 hPa -
Precipitation: 0 mm    
Historical Graphs
 
 
Tabular Data for November 13, 2017
Time Temperature Dew Point Pressure Wind Wind Speed Wind Gust Humidity Rainfall Rate (Hourly) solar Conditions
00:02 3.1 °C -0.7 °C 1022.9 hPa WNW 11.3 km/h 19.3 km/h 76 % 0 mm 0 W/m2
00:07 3 °C -0.8 °C 1022.9 hPa WNW 11.3 km/h 19.3 km/h 76 % 0 mm 0 W/m2
00:12 2.9 °C -0.9 °C 1022.9 hPa WNW 9.7 km/h 17.7 km/h 76 % 0 mm 0 W/m2
00:18 2.9 °C -0.7 °C 1022.9 hPa NW 11.3 km/h 17.7 km/h 77 % 0 mm 0 W/m2
00:23 3 °C -0.7 °C 1022.9 hPa NW 11.3 km/h 19.3 km/h 77 % 0 mm 0 W/m2
00:28 3.2 °C -0.4 °C 1023.2 hPa NW 16.1 km/h 24.1 km/h 77 % 0 mm 0 W/m2
00:33 3.3 °C -0.6 °C 1023.2 hPa NW 14.5 km/h 22.5 km/h 76 % 0 mm 0 W/m2
00:38 3.3 °C -0.6 °C 1023.2 hPa NW 12.9 km/h 19.3 km/h 76 % 0 mm 0 W/m2
00:43 3.3 °C -0.6 °C 1023.2 hPa NW 14.5 km/h 25.7 km/h 76 % 0 mm 0 W/m2
00:48 3.3 °C -0.6 °C 1023.2 hPa NW 11.3 km/h 20.9 km/h 76 % 0 mm 0 W/m2
00:53 3.3 °C -0.6 °C 1023.2 hPa WNW 12.9 km/h 22.5 km/h 76 % 0 mm 0 W/m2
00:58 3.2 °C -0.6 °C 1023.2 hPa NW 11.3 km/h 20.9 km/h 76 % 0 mm 0 W/m2
01:03 3.2 °C -0.4 °C 1023.6 hPa WNW 11.3 km/h 17.7 km/h 77 % 0 mm 0 W/m2
01:08 3.2 °C -0.4 °C 1023.6 hPa NW 14.5 km/h 24.1 km/h 77 % 0 mm 0 W/m2
01:13 3.2 °C -0.4 °C 1023.2 hPa WNW 17.7 km/h 24.1 km/h 77 % 0 mm 0 W/m2
01:18 3.2 °C -0.4 °C 1023.2 hPa NW 11.3 km/h 20.9 km/h 77 % 0 mm 0 W/m2
01:23 3.3 °C -0.3 °C 1023.2 hPa NW 12.9 km/h 24.1 km/h 77 % 0 mm 0 W/m2
01:28 3.3 °C -0.3 °C 1023.2 hPa NW 11.3 km/h 19.3 km/h 77 % 0 mm 0 W/m2
01:33 3.3 °C -0.3 °C 1023.6 hPa NW 14.5 km/h 24.1 km/h 77 % 0 mm 0 W/m2
01:38 3.3 °C -0.3 °C 1023.6 hPa NW 11.3 km/h 20.9 km/h 77 % 0 mm 0 W/m2
01:43 3.3 °C -0.3 °C 1023.2 hPa NW 11.3 km/h 20.9 km/h 77 % 0 mm 0 W/m2
01:48 3.3 °C -0.3 °C 1023.6 hPa NW 11.3 km/h 22.5 km/h 77 % 0 mm 0 W/m2
01:53 3.3 °C -0.3 °C 1023.6 hPa NW 11.3 km/h 19.3 km/h 77 % 0 mm 0 W/m2
01:58 3.3 °C -0.3 °C 1023.6 hPa NW 11.3 km/h 17.7 km/h 77 % 0 mm 0 W/m2
02:03 3.3 °C -0.3 °C 1023.6 hPa NW 12.9 km/h 22.5 km/h 77 % 0 mm 0 W/m2
02:08 3.3 °C -0.3 °C 1023.6 hPa WNW 12.9 km/h 19.3 km/h 77 % 0 mm 0 W/m2
02:13 3.3 °C -0.2 °C 1023.9 hPa WNW 8 km/h 14.5 km/h 78 % 0 mm 0 W/m2
02:18 3.2 °C -0.3 °C 1023.9 hPa WNW 9.7 km/h 16.1 km/h 78 % 0 mm 0 W/m2
02:24 3 °C -0.4 °C 1023.9 hPa WNW 11.3 km/h 17.7 km/h 78 % 0 mm 0 W/m2
02:29 2.9 °C -0.6 °C 1023.9 hPa WNW 9.7 km/h 16.1 km/h 78 % 0 mm 0 W/m2
02:34 2.7 °C -0.6 °C 1023.9 hPa WNW 9.7 km/h 19.3 km/h 79 % 0 mm 0 W/m2
02:39 2.6 °C -0.7 °C 1023.9 hPa WNW 8 km/h 9.7 km/h 79 % 0 mm 0 W/m2
02:44 2.5 °C -0.6 °C 1023.9 hPa WNW 8 km/h 12.9 km/h 80 % 0 mm 0 W/m2
02:49 2.4 °C -0.7 °C 1023.9 hPa WNW 9.7 km/h 14.5 km/h 80 % 0 mm 0 W/m2
02:54 2.3 °C -0.8 °C 1023.9 hPa WNW 11.3 km/h 16.1 km/h 80 % 0 mm 0 W/m2
02:59 2.3 °C -0.6 °C 1023.9 hPa WNW 8 km/h 17.7 km/h 81 % 0 mm 0 W/m2
03:04 2.2 °C -0.7 °C 1023.9 hPa WNW 8 km/h 12.9 km/h 81 % 0 mm 0 W/m2
03:09 2.2 °C -0.7 °C 1024.3 hPa WNW 8 km/h 14.5 km/h 81 % 0 mm 0 W/m2
03:15 2.2 °C -0.7 °C 1024.3 hPa WNW 8 km/h 14.5 km/h 81 % 0 mm 0 W/m2
03:20 2.2 °C -0.7 °C 1024.3 hPa WNW 8 km/h 14.5 km/h 81 % 0 mm 0 W/m2
03:21 2.2 °C -0.7 °C 1024.3 hPa WNW 8 km/h 11.3 km/h 81 % 0 mm 0 W/m2
03:23 2.2 °C -0.7 °C 1024.3 hPa WNW 6.4 km/h 11.3 km/h 81 % 0 mm 0 W/m2
03:24 2.2 °C -0.7 °C 1024.3 hPa WNW 6.4 km/h 14.5 km/h 81 % 0 mm 0 W/m2
03:29 2.1 °C -0.8 °C 1024.3 hPa WNW 8 km/h 14.5 km/h 81 % 0 mm 0 W/m2
03:34 2.1 °C -0.7 °C 1024.3 hPa WNW 9.7 km/h 14.5 km/h 82 % 0 mm 0 W/m2
03:39 2 °C -0.8 °C 1024.3 hPa WNW 9.7 km/h 16.1 km/h 82 % 0 mm 0 W/m2
03:44 2 °C -0.8 °C 1024.3 hPa WNW 8 km/h 12.9 km/h 82 % 0 mm 0 W/m2
03:49 1.9 °C -0.8 °C 1024.6 hPa WNW 6.4 km/h 9.7 km/h 82 % 0 mm 0 W/m2
03:55 1.9 °C -0.8 °C 1024.6 hPa WNW 8 km/h 16.1 km/h 82 % 0 mm 0 W/m2
04:00 1.9 °C -0.8 °C 1024.6 hPa WNW 6.4 km/h 11.3 km/h 82 % 0 mm 0 W/m2
04:04 1.8 °C -0.9 °C 1024.6 hPa WNW 6.4 km/h 14.5 km/h 82 % 0 mm 0 W/m2
04:10 1.9 °C -0.7 °C 1024.6 hPa WNW 8 km/h 16.1 km/h 83 % 0 mm 0 W/m2
04:15 1.9 °C -0.7 °C 1024.6 hPa WNW 9.7 km/h 14.5 km/h 83 % 0 mm 0 W/m2
04:20 1.9 °C -0.8 °C 1024.6 hPa WNW 8 km/h 12.9 km/h 82 % 0 mm 0 W/m2
04:25 1.8 °C -0.9 °C 1024.6 hPa WNW 8 km/h 11.3 km/h 82 % 0 mm 0 W/m2
04:30 1.8 °C -0.9 °C 1024.6 hPa WNW 8 km/h 12.9 km/h 82 % 0 mm 0 W/m2
04:35 1.7 °C -1.1 °C 1024.9 hPa WNW 6.4 km/h 12.9 km/h 82 % 0 mm 0 W/m2
04:40 1.6 °C -1 °C 1024.9 hPa WNW 4.8 km/h 9.7 km/h 83 % 0 mm 0 W/m2
04:50 1.5 °C -1.1 °C 1024.9 hPa WNW 9.7 km/h 14.5 km/h 83 % 0 mm 0 W/m2
04:55 1.5 °C -1.1 °C 1024.9 hPa WNW 8 km/h 12.9 km/h 83 % 0 mm 0 W/m2
05:00 1.4 °C -1.2 °C 1024.9 hPa WNW 6.4 km/h 11.3 km/h 83 % 0 mm 0 W/m2
05:05 1.4 °C -1 °C 1024.9 hPa NW 8 km/h 14.5 km/h 84 % 0 mm 0 W/m2
05:10 1.3 °C -1.1 °C 1024.9 hPa WNW 8 km/h 12.9 km/h 84 % 0 mm 0 W/m2
05:15 1.4 °C -1 °C 1024.9 hPa WNW 9.7 km/h 14.5 km/h 84 % 0 mm 0 W/m2
05:20 1.4 °C -1 °C 1024.9 hPa WNW 9.7 km/h 16.1 km/h 84 % 0 mm 0 W/m2
05:25 1.4 °C -1 °C 1024.9 hPa WNW 6.4 km/h 12.9 km/h 84 % 0 mm 0 W/m2
05:30 1.5 °C -0.9 °C 1024.9 hPa WNW 6.4 km/h 14.5 km/h 84 % 0 mm 0 W/m2
05:32 1.5 °C -0.9 °C 1025.3 hPa WNW 4.8 km/h 8 km/h 84 % 0 mm 0 W/m2
05:37 1.4 °C -1.2 °C 1025.3 hPa WNW 4.8 km/h 9.7 km/h 83 % 0 mm 0 W/m2
05:42 1.3 °C -1.1 °C 1024.9 hPa NW 8 km/h 14.5 km/h 84 % 0 mm 0 W/m2
05:47 1.3 °C -1.1 °C 1025.3 hPa NW 6.4 km/h 12.9 km/h 84 % 0 mm 0 W/m2
05:51 1.3 °C -1.1 °C 1024.9 hPa NW 11.3 km/h 17.7 km/h 84 % 0 mm 0 W/m2
05:56 1.4 °C -1 °C 1024.9 hPa NW 8 km/h 11.3 km/h 84 % 0 mm 0 W/m2
05:58 1.5 °C -0.9 °C 1024.9 hPa NW 6.4 km/h 11.3 km/h 84 % 0 mm 0 W/m2
06:03 1.5 °C -0.9 °C 1024.9 hPa NW 4.8 km/h 11.3 km/h 84 % 0 mm 0 W/m2
06:08 1.6 °C -1 °C 1025.3 hPa NW 4.8 km/h 9.7 km/h 83 % 0 mm 0 W/m2
06:13 1.6 °C -1 °C 1025.3 hPa NW 6.4 km/h 12.9 km/h 83 % 0 mm 0 W/m2
06:18 1.6 °C -1 °C 1025.3 hPa NW 8 km/h 14.5 km/h 83 % 0 mm 0 W/m2
06:23 1.6 °C -1 °C 1025.3 hPa NW 6.4 km/h 14.5 km/h 83 % 0 mm 0 W/m2
06:28 1.6 °C -1 °C 1025.3 hPa NW 6.4 km/h 11.3 km/h 83 % 0 mm 0 W/m2
06:33 1.6 °C -1 °C 1025.3 hPa NW 9.7 km/h 14.5 km/h 83 % 0 mm 0 W/m2
06:39 1.7 °C -0.9 °C 1025.3 hPa WNW 11.3 km/h 17.7 km/h 83 % 0 mm 0 W/m2
06:44 1.7 °C -0.9 °C 1025.6 hPa WNW 6.4 km/h 14.5 km/h 83 % 0 mm 0 W/m2
06:49 1.7 °C -0.9 °C 1025.6 hPa WNW 6.4 km/h 14.5 km/h 83 % 0 mm 0 W/m2
06:54 1.7 °C -0.9 °C 1025.6 hPa WNW 6.4 km/h 9.7 km/h 83 % 0 mm 0 W/m2
06:59 1.7 °C -0.9 °C 1025.6 hPa WNW 6.4 km/h 12.9 km/h 83 % 0 mm 0 W/m2
07:04 1.6 °C -1 °C 1025.6 hPa WNW 1.6 km/h 4.8 km/h 83 % 0 mm 0 W/m2
07:09 1.6 °C -1 °C 1025.6 hPa West 3.2 km/h 8 km/h 83 % 0 mm 0 W/m2
07:14 1.4 °C -1.2 °C 1025.6 hPa West 1.6 km/h 6.4 km/h 83 % 0 mm 0 W/m2
07:19 1.4 °C -1 °C 1025.6 hPa West 1.6 km/h 4.8 km/h 84 % 0 mm 5 W/m2
07:24 1.4 °C -1 °C 1025.6 hPa WNW 4.8 km/h 11.3 km/h 84 % 0 mm 5 W/m2
07:29 1.5 °C -0.9 °C 1025.6 hPa WNW 4.8 km/h 9.7 km/h 84 % 0 mm 7 W/m2
07:34 1.6 °C -0.7 °C 1026 hPa WNW 6.4 km/h 14.5 km/h 85 % 0 mm 9 W/m2
07:39 1.7 °C -0.7 °C 1026 hPa WNW 3.2 km/h 11.3 km/h 84 % 0 mm 12 W/m2
07:44 1.8 °C -0.6 °C 1026 hPa WNW 1.6 km/h 8 km/h 84 % 0 mm 18 W/m2
07:49 1.9 °C -0.5 °C 1026 hPa WNW 6.4 km/h 12.9 km/h 84 % 0 mm 28 W/m2
07:54 2.1 °C -0.3 °C 1026 hPa WNW 8 km/h 14.5 km/h 84 % 0 mm 39 W/m2
07:59 2.3 °C -0.1 °C 1026 hPa WNW 8 km/h 16.1 km/h 84 % 0 mm 51 W/m2
08:04 2.5 °C -0.1 °C 1026 hPa WNW 9.7 km/h 17.7 km/h 83 % 0 mm 47 W/m2
08:09 2.7 °C -0.1 °C 1026 hPa WNW 11.3 km/h 16.1 km/h 82 % 0 mm 42 W/m2
08:14 2.9 °C -0.1 °C 1026 hPa WNW 9.7 km/h 14.5 km/h 81 % 0 mm 42 W/m2
08:19 3.1 °C 0.2 °C 1026 hPa WNW 9.7 km/h 19.3 km/h 81 % 0 mm 40 W/m2
08:24 3.2 °C 0.1 °C 1026 hPa WNW 8 km/h 12.9 km/h 80 % 0 mm 49 W/m2
08:29 3.3 °C 0.2 °C 1026 hPa WNW 4.8 km/h 11.3 km/h 80 % 0 mm 60 W/m2
08:34 3.4 °C 0.1 °C 1026 hPa WNW 6.4 km/h 12.9 km/h 79 % 0 mm 47 W/m2
08:39 3.6 °C 0.3 °C 1026.3 hPa WNW 8 km/h 16.1 km/h 79 % 0 mm 51 W/m2
08:44 3.7 °C 0.4 °C 1026.3 hPa WNW 8 km/h 16.1 km/h 79 % 0 mm 49 W/m2
08:49 3.7 °C 0.2 °C 1026.3 hPa WNW 6.4 km/h 11.3 km/h 78 % 0 mm 58 W/m2
08:54 3.8 °C 0.3 °C 1026.3 hPa WNW 9.7 km/h 16.1 km/h 78 % 0 mm 65 W/m2
09:08 4 °C 0.5 °C 1026.6 hPa NW 8 km/h 12.9 km/h 78 % 0 mm 62 W/m2
09:13 4.1 °C 0.6 °C 1026.3 hPa WNW 8 km/h 16.1 km/h 78 % 0 mm 53 W/m2
09:18 4.2 °C 0.5 °C 1026.6 hPa WNW 8 km/h 14.5 km/h 77 % 0 mm 58 W/m2
09:23 4.3 °C 0.6 °C 1026.6 hPa WNW 8 km/h 12.9 km/h 77 % 0 mm 69 W/m2
09:28 4.3 °C 0.6 °C 1026.6 hPa WNW 6.4 km/h 12.9 km/h 77 % 0 mm 81 W/m2
09:33 4.4 °C 0.7 °C 1026.6 hPa WNW 6.4 km/h 12.9 km/h 77 % 0 mm 95 W/m2
09:38 4.4 °C 0.6 °C 1026.6 hPa WNW 8 km/h 16.1 km/h 76 % 0 mm 113 W/m2
09:43 4.6 °C 0.7 °C 1026.6 hPa WNW 8 km/h 14.5 km/h 76 % 0 mm 118 W/m2
09:48 4.7 °C 0.8 °C 1026.6 hPa WNW 8 km/h 12.9 km/h 76 % 0 mm 107 W/m2
09:53 4.8 °C 0.7 °C 1026.6 hPa WNW 6.4 km/h 14.5 km/h 75 % 0 mm 137 W/m2
09:58 4.9 °C 0.8 °C 1026.6 hPa WNW 9.7 km/h 16.1 km/h 75 % 0 mm 332 W/m2
10:03 5.3 °C 1.2 °C 1026.6 hPa WNW 9.7 km/h 14.5 km/h 75 % 0 mm 339 W/m2
10:08 5.6 °C 1.1 °C 1026.6 hPa WNW 16.1 km/h 20.9 km/h 73 % 0 mm 199 W/m2
10:13 5.8 °C 1.1 °C 1026.6 hPa WNW 11.3 km/h 20.9 km/h 72 % 0 mm 144 W/m2
10:18 5.8 °C 1.1 °C 1027 hPa WNW 9.7 km/h 16.1 km/h 72 % 0 mm 148 W/m2
10:23 5.8 °C 1.1 °C 1027 hPa WNW 6.4 km/h 14.5 km/h 72 % 0 mm 142 W/m2
10:28 5.8 °C 1.1 °C 1027 hPa WNW 11.3 km/h 19.3 km/h 72 % 0 mm 142 W/m2
10:33 5.7 °C 1.1 °C 1027 hPa WNW 9.7 km/h 16.1 km/h 72 % 0 mm 165 W/m2
10:38 5.7 °C 1.1 °C 1027 hPa WNW 9.7 km/h 16.1 km/h 72 % 0 mm 202 W/m2
10:43 5.8 °C 1.1 °C 1027 hPa NW 8 km/h 17.7 km/h 72 % 0 mm 148 W/m2
10:48 5.9 °C 1.2 °C 1027 hPa WNW 9.7 km/h 17.7 km/h 72 % 0 mm 139 W/m2
10:53 5.9 °C 1.2 °C 1027 hPa WNW 11.3 km/h 17.7 km/h 72 % 0 mm 125 W/m2
10:58 5.9 °C 1.1 °C 1027 hPa WNW 9.7 km/h 12.9 km/h 71 % 0 mm 139 W/m2
11:03 5.9 °C 1.1 °C 1026.6 hPa NW 8 km/h 12.9 km/h 71 % 0 mm 135 W/m2
11:08 5.9 °C 1.2 °C 1026.6 hPa WNW 9.7 km/h 17.7 km/h 72 % 0 mm 148 W/m2
11:14 5.9 °C 1.2 °C 1026.6 hPa WNW 8 km/h 14.5 km/h 72 % 0 mm 148 W/m2
11:19 6 °C 1.1 °C 1026.6 hPa WNW 6.4 km/h 11.3 km/h 71 % 0 mm 141 W/m2
11:24 6.1 °C 1.2 °C 1026.6 hPa WNW 11.3 km/h 14.5 km/h 71 % 0 mm 123 W/m2
11:29 6.1 °C 1.2 °C 1026.6 hPa WNW 8 km/h 14.5 km/h 71 % 0 mm 104 W/m2
11:34 6.1 °C 1.2 °C 1026.6 hPa WNW 9.7 km/h 12.9 km/h 71 % 0 mm 113 W/m2
11:39 6.1 °C 1.2 °C 1026.6 hPa WNW 11.3 km/h 17.7 km/h 71 % 0 mm 91 W/m2
11:44 6.2 °C 1.3 °C 1026.6 hPa WNW 9.7 km/h 17.7 km/h 71 % 0 mm 102 W/m2
11:49 6.2 °C 1.3 °C 1026.6 hPa WNW 9.7 km/h 14.5 km/h 71 % 0 mm 84 W/m2
11:54 6.2 °C 1.3 °C 1026.6 hPa WNW 8 km/h 11.3 km/h 71 % 0 mm 79 W/m2
11:59 6.1 °C 1.2 °C 1026.6 hPa West 9.7 km/h 16.1 km/h 71 % 0 mm 81 W/m2
12:04 6.1 °C 1.4 °C 1026.3 hPa WNW 6.4 km/h 9.7 km/h 72 % 0 mm 95 W/m2
12:10 6.1 °C 1.4 °C 1026.3 hPa WNW 3.2 km/h 8 km/h 72 % 0 mm 105 W/m2
12:15 6.1 °C 1.4 °C 1026.3 hPa WNW 6.4 km/h 12.9 km/h 72 % 0 mm 77 W/m2
12:20 6.2 °C 1.5 °C 1026.3 hPa WNW 9.7 km/h 16.1 km/h 72 % 0 mm 79 W/m2
12:25 6.2 °C 1.5 °C 1026.3 hPa WNW 9.7 km/h 14.5 km/h 72 % 0 mm 53 W/m2
12:30 6.2 °C 1.3 °C 1026.3 hPa NW 8 km/h 12.9 km/h 71 % 0 mm 49 W/m2
12:35 6.2 °C 1.3 °C 1026.3 hPa NW 8 km/h 12.9 km/h 71 % 0 mm 51 W/m2
12:40 6.1 °C 1.1 °C 1026.3 hPa NNW 12.9 km/h 19.3 km/h 70 % 0 mm 56 W/m2
12:45 5.8 °C 0.9 °C 1026.3 hPa North 9.7 km/h 14.5 km/h 71 % 0 mm 83 W/m2
12:50 5.7 °C 1.1 °C 1026 hPa NNW 4.8 km/h 11.3 km/h 72 % 0 mm 95 W/m2
12:55 5.6 °C 1.1 °C 1026 hPa NW 1.6 km/h 9.7 km/h 73 % 0 mm 113 W/m2
13:00 5.6 °C 0.9 °C 1026 hPa Calm   3.2 km/h 72 % 0 mm 109 W/m2
13:10 5.7 °C 0.8 °C 1025.6 hPa Calm     71 % 0 mm 158 W/m2
13:15 5.9 °C 1.1 °C 1025.6 hPa NW 3.2 km/h 6.4 km/h 71 % 0 mm 141 W/m2
13:20 6.1 °C 1.2 °C 1025.6 hPa WNW 1.6 km/h 6.4 km/h 71 % 0 mm 137 W/m2
13:25 6.2 °C 1.5 °C 1025.6 hPa WNW 3.2 km/h 9.7 km/h 72 % 0 mm 134 W/m2
13:30 6.3 °C 1.6 °C 1025.6 hPa West 4.8 km/h 11.3 km/h 72 % 0 mm 91 W/m2
13:35 6.4 °C 1.7 °C 1025.3 hPa West 8 km/h 11.3 km/h 72 % 0 mm 79 W/m2
13:40 6.3 °C 1.4 °C 1025.3 hPa West 3.2 km/h 8 km/h 71 % 0 mm 62 W/m2
13:45 6.3 °C 1.4 °C 1025.3 hPa West 3.2 km/h 6.4 km/h 71 % 0 mm 107 W/m2
13:50 6.3 °C 1.4 °C 1025.3 hPa West 6.4 km/h 9.7 km/h 71 % 0 mm 88 W/m2
13:55 6.3 °C 1.4 °C 1024.9 hPa West 4.8 km/h 8 km/h 71 % 0 mm 95 W/m2
14:00 6.4 °C 1.5 °C 1025.3 hPa West 3.2 km/h 12.9 km/h 71 % 0 mm 123 W/m2
14:10 6.5 °C 1 °C 1024.9 hPa West 8 km/h 14.5 km/h 68 % 0 mm 93 W/m2
14:16 6.5 °C 1 °C 1024.9 hPa WNW 6.4 km/h 14.5 km/h 68 % 0 mm 76 W/m2
14:21 6.5 °C 1 °C 1024.9 hPa WNW 9.7 km/h 17.7 km/h 68 % 0 mm 67 W/m2
14:26 6.5 °C 0.8 °C 1024.9 hPa West 9.7 km/h 17.7 km/h 67 % 0 mm 40 W/m2
14:31 6.5 °C 1 °C 1024.9 hPa West 11.3 km/h 17.7 km/h 68 % 0 mm 53 W/m2
14:36 6.5 °C 1 °C 1024.9 hPa WNW 3.2 km/h 9.7 km/h 68 % 0 mm 60 W/m2
14:41 6.5 °C 1.2 °C 1024.6 hPa WNW 4.8 km/h 9.7 km/h 69 % 0 mm 79 W/m2
14:46 6.6 °C 1.3 °C 1024.6 hPa WNW 8 km/h 19.3 km/h 69 % 0 mm 70 W/m2
14:51 6.5 °C 1.2 °C 1024.6 hPa WNW 11.3 km/h 17.7 km/h 69 % 0 mm 60 W/m2
14:56 6.5 °C 1.4 °C 1024.9 hPa WNW 9.7 km/h 16.1 km/h 70 % 0 mm 44 W/m2
15:01 6.5 °C 1.4 °C 1024.6 hPa WNW 14.5 km/h 19.3 km/h 70 % 0 mm 49 W/m2
15:06 6.5 °C 1.4 °C 1024.6 hPa West 8 km/h 12.9 km/h 70 % 0 mm 42 W/m2
15:16 6.4 °C 1.5 °C 1024.6 hPa West 8 km/h 14.5 km/h 71 % 0 mm 23 W/m2
15:21 6.4 °C 1.5 °C 1024.6 hPa WNW 12.9 km/h 20.9 km/h 71 % 0 mm 21 W/m2
15:26 6.4 °C 1.7 °C 1024.6 hPa WNW 8 km/h 17.7 km/h 72 % 0 mm 23 W/m2
15:31 6.4 °C 1.7 °C 1024.6 hPa West 6.4 km/h 14.5 km/h 72 % 0 mm 28 W/m2
15:36 6.4 °C 1.7 °C 1024.6 hPa WNW 4.8 km/h 11.3 km/h 72 % 0 mm 23 W/m2
15:41 6.4 °C 1.9 °C 1024.3 hPa West 4.8 km/h 8 km/h 73 % 0 mm 16 W/m2
15:46 6.3 °C 1.8 °C 1024.3 hPa West 8 km/h 14.5 km/h 73 % 0 mm 12 W/m2
15:51 6.2 °C 1.7 °C 1024.3 hPa West 6.4 km/h 12.9 km/h 73 % 0 mm 9 W/m2
15:56 6.1 °C 1.8 °C 1024.6 hPa West 9.7 km/h 14.5 km/h 74 % 0 mm 7 W/m2
16:01 6.1 °C 1.8 °C 1024.6 hPa West 6.4 km/h 14.5 km/h 74 % 0 mm 5 W/m2
16:06 6 °C 1.7 °C 1024.6 hPa West 11.3 km/h 17.7 km/h 74 % 0 mm 0 W/m2
16:11 5.9 °C 1.6 °C 1024.6 hPa West 11.3 km/h 17.7 km/h 74 % 0 mm 0 W/m2
16:16 5.9 °C 1.8 °C 1024.6 hPa West 9.7 km/h 14.5 km/h 75 % 0 mm 0 W/m2
16:21 5.9 °C 1.8 °C 1024.6 hPa WNW 6.4 km/h 12.9 km/h 75 % 0 mm 0 W/m2
16:26 5.9 °C 1.8 °C 1024.6 hPa West 3.2 km/h 8 km/h 75 % 0 mm 0 W/m2
16:31 5.8 °C 1.7 °C 1024.3 hPa WNW 3.2 km/h 8 km/h 75 % 0 mm 0 W/m2
16:36 5.8 °C 1.9 °C 1024.3 hPa WNW 6.4 km/h 11.3 km/h 76 % 0 mm 0 W/m2
16:41 5.8 °C 1.9 °C 1024.3 hPa WNW 3.2 km/h 8 km/h 76 % 0 mm 0 W/m2
16:46 5.8 °C 1.9 °C 1024.3 hPa WNW 3.2 km/h 8 km/h 76 % 0 mm 0 W/m2
16:51 5.8 °C 1.9 °C 1024.3 hPa WNW 1.6 km/h 1.6 km/h 76 % 0 mm 0 W/m2
16:56 5.8 °C 1.9 °C 1024.3 hPa WNW 1.6 km/h 4.8 km/h 76 % 0 mm 0 W/m2
17:01 5.8 °C 2.1 °C 1024.3 hPa West 3.2 km/h 8 km/h 77 % 0 mm 0 W/m2
17:06 5.8 °C 2.1 °C 1024.3 hPa WSW 4.8 km/h 11.3 km/h 77 % 0 mm 0 W/m2
17:11 5.9 °C 2.2 °C 1024.3 hPa WSW 1.6 km/h 4.8 km/h 77 % 0 mm 0 W/m2
17:16 5.9 °C 2.2 °C 1024.3 hPa WSW 3.2 km/h 8 km/h 77 % 0 mm 0 W/m2
17:21 5.9 °C 2.2 °C 1024.3 hPa Calm   3.2 km/h 77 % 0 mm 0 W/m2
17:26 5.9 °C 2.2 °C 1024.3 hPa WSW 1.6 km/h 6.4 km/h 77 % 0 mm 0 W/m2
17:31 5.9 °C 2.2 °C 1024.3 hPa West 3.2 km/h 8 km/h 77 % 0 mm 0 W/m2
17:36 5.9 °C 2.2 °C 1024.3 hPa WSW 3.2 km/h 8 km/h 77 % 0 mm 0 W/m2
17:41 6 °C 2.3 °C 1024.3 hPa WSW 4.8 km/h 8 km/h 77 % 0 mm 0 W/m2
17:46 5.9 °C 2.2 °C 1023.9 hPa Calm   1.6 km/h 77 % 0 mm 0 W/m2
17:47 5.9 °C 2.2 °C 1023.9 hPa Calm   1.6 km/h 77 % 0 mm 0 W/m2
17:52 5.9 °C 2.2 °C 1023.9 hPa WSW 1.6 km/h 4.8 km/h 77 % 0 mm 0 W/m2
17:57 6 °C 2.3 °C 1023.9 hPa WSW 8 km/h 14.5 km/h 77 % 0 mm 0 W/m2
18:02 6 °C 2.3 °C 1023.9 hPa WSW 9.7 km/h 14.5 km/h 77 % 0 mm 0 W/m2
18:07 6 °C 2.3 °C 1023.9 hPa SW 8 km/h 12.9 km/h 77 % 0 mm 0 W/m2
18:12 6.1 °C 2.4 °C 1023.9 hPa WSW 12.9 km/h 20.9 km/h 77 % 0 mm 0 W/m2
18:17 6.1 °C 2.4 °C 1023.9 hPa WSW 11.3 km/h 19.3 km/h 77 % 0 mm 0 W/m2
18:22 6.1 °C 2.4 °C 1023.9 hPa SW 14.5 km/h 19.3 km/h 77 % 0 mm 0 W/m2
18:27 6.1 °C 2.4 °C 1023.9 hPa WSW 12.9 km/h 17.7 km/h 77 % 0 mm 0 W/m2
18:32 6.1 °C 2.4 °C 1023.6 hPa SW 11.3 km/h 17.7 km/h 77 % 0 mm 0 W/m2
18:37 6 °C 2.3 °C 1023.6 hPa SW 8 km/h 14.5 km/h 77 % 0 mm 0 W/m2
18:42 6 °C 2.3 °C 1023.6 hPa SW 11.3 km/h 17.7 km/h 77 % 0 mm 0 W/m2
18:47 5.9 °C 2.2 °C 1023.6 hPa WSW 6.4 km/h 9.7 km/h 77 % 0 mm 0 W/m2
18:52 5.9 °C 2.3 °C 1023.6 hPa SW 3.2 km/h 9.7 km/h 78 % 0 mm 0 W/m2
18:57 5.9 °C 2.3 °C 1023.6 hPa WSW 4.8 km/h 9.7 km/h 78 % 0 mm 0 W/m2
19:02 5.9 °C 2.3 °C 1023.2 hPa SW 9.7 km/h 16.1 km/h 78 % 0 mm 0 W/m2
19:07 5.9 °C 2.6 °C 1023.2 hPa SW 8 km/h 12.9 km/h 79 % 0 mm 0 W/m2
19:12 5.9 °C 2.6 °C 1023.2 hPa SW 9.7 km/h 14.5 km/h 79 % 0 mm 0 W/m2
19:17 5.9 °C 2.6 °C 1023.2 hPa SW 6.4 km/h 9.7 km/h 79 % 0 mm 0 W/m2
19:22 5.9 °C 2.6 °C 1023.2 hPa SW 6.4 km/h 11.3 km/h 79 % 0 mm 0 W/m2
19:27 5.9 °C 2.7 °C 1023.2 hPa SW 6.4 km/h 9.7 km/h 80 % 0 mm 0 W/m2
19:32 6 °C 2.8 °C 1023.2 hPa SW 3.2 km/h 9.7 km/h 80 % 0 mm 0 W/m2
19:37 6 °C 2.8 °C 1022.9 hPa SW 3.2 km/h 8 km/h 80 % 0 mm 0 W/m2
19:42 6 °C 2.8 °C 1022.9 hPa SSW 6.4 km/h 9.7 km/h 80 % 0 mm 0 W/m2
19:47 6 °C 2.8 °C 1022.9 hPa SW 4.8 km/h 9.7 km/h 80 % 0 mm 0 W/m2
19:52 6 °C 2.8 °C 1022.9 hPa SW 3.2 km/h 8 km/h 80 % 0 mm 0 W/m2
19:57 6 °C 2.8 °C 1022.6 hPa SW 1.6 km/h 6.4 km/h 80 % 0 mm 0 W/m2
20:02 6 °C 3 °C 1022.6 hPa SW 1.6 km/h 6.4 km/h 81 % 0 mm 0 W/m2
20:07 6 °C 3 °C 1022.6 hPa Calm   1.6 km/h 81 % 0 mm 0 W/m2
20:12 6.1 °C 3.1 °C 1022.6 hPa Calm     81 % 0 mm 0 W/m2
20:17 6.1 °C 3.1 °C 1022.6 hPa SSW 1.6 km/h 6.4 km/h 81 % 0 mm 0 W/m2
20:22 6.1 °C 3.3 °C 1022.6 hPa SSW 1.6 km/h 3.2 km/h 82 % 0 mm 0 W/m2
20:27 6.1 °C 3.3 °C 1022.6 hPa Calm     82 % 0 mm 0 W/m2
20:32 6.2 °C 3.3 °C 1022.6 hPa Calm   3.2 km/h 82 % 0 mm 0 W/m2
20:37 6.3 °C 3.4 °C 1022.6 hPa WSW 9.7 km/h 16.1 km/h 82 % 0 mm 0 W/m2
20:42 6.5 °C 3.5 °C 1022.6 hPa WSW 8 km/h 16.1 km/h 81 % 0 mm 0 W/m2
20:47 6.7 °C 3.7 °C 1022.2 hPa West 12.9 km/h 17.7 km/h 81 % 0 mm 0 W/m2
20:52 6.9 °C 3.7 °C 1022.2 hPa WSW 16.1 km/h 25.7 km/h 80 % 0 mm 0 W/m2
20:57 7.1 °C 3.7 °C 1022.2 hPa SW 11.3 km/h 22.5 km/h 79 % 0 mm 0 W/m2
21:02 7.1 °C 3.5 °C 1022.2 hPa WSW 9.7 km/h 17.7 km/h 78 % 0 mm 0 W/m2
21:07 7.2 °C 3.6 °C 1022.2 hPa WSW 12.9 km/h 19.3 km/h 78 % 0 mm 0 W/m2
21:12 7.2 °C 3.4 °C 1021.9 hPa WSW 12.9 km/h 20.9 km/h 77 % 0 mm 0 W/m2
21:17 7.3 °C 3.6 °C 1021.9 hPa WSW 9.7 km/h 16.1 km/h 77 % 0 mm 0 W/m2
21:22 7.3 °C 3.6 °C 1021.9 hPa WSW 11.3 km/h 20.9 km/h 77 % 0 mm 0 W/m2
21:27 7.3 °C 3.3 °C 1021.9 hPa SW 11.3 km/h 14.5 km/h 76 % 0 mm 0 W/m2
21:32 7.3 °C 3.3 °C 1021.9 hPa WSW 6.4 km/h 14.5 km/h 76 % 0 mm 0 W/m2
21:37 7.3 °C 3.3 °C 1021.6 hPa WSW 11.3 km/h 17.7 km/h 76 % 0 mm 0 W/m2
21:47 7.3 °C 3.6 °C 1021.6 hPa WSW 12.9 km/h 19.3 km/h 77 % 0 mm 0 W/m2
21:52 7.4 °C 3.6 °C 1021.2 hPa WSW 9.7 km/h 16.1 km/h 77 % 0 mm 0 W/m2
21:57 7.4 °C 3.6 °C 1021.6 hPa West 12.9 km/h 17.7 km/h 77 % 0 mm 0 W/m2
22:03 7.4 °C 3.8 °C 1021.6 hPa West 19.3 km/h 25.7 km/h 78 % 0 mm 0 W/m2
22:08 7.5 °C 3.9 °C 1021.6 hPa WSW 11.3 km/h 17.7 km/h 78 % 0 mm 0 W/m2
22:13 7.5 °C 4.1 °C 1021.6 hPa WSW 11.3 km/h 17.7 km/h 79 % 0 mm 0 W/m2
22:18 7.5 °C 4.1 °C 1021.6 hPa WSW 8 km/h 11.3 km/h 79 % 0 mm 0 W/m2
22:23 7.5 °C 4.3 °C 1021.6 hPa WSW 8 km/h 14.5 km/h 80 % 0 mm 0 W/m2
22:28 7.5 °C 4.4 °C 1021.2 hPa WSW 11.3 km/h 17.7 km/h 81 % 0 mm 0 W/m2
22:33 7.5 °C 4.6 °C 1021.2 hPa WSW 14.5 km/h 24.1 km/h 82 % 0 mm 0 W/m2
22:38 7.6 °C 4.7 °C 1021.2 hPa WSW 12.9 km/h 19.3 km/h 82 % 0 mm 0 W/m2
22:43 7.5 °C 4.6 °C 1020.9 hPa WSW 8 km/h 16.1 km/h 82 % 0 mm 0 W/m2
22:48 7.4 °C 4.7 °C 1020.9 hPa WSW 11.3 km/h 19.3 km/h 83 % 0 mm 0 W/m2
22:53 7.4 °C 4.9 °C 1020.9 hPa WSW 11.3 km/h 20.9 km/h 84 % 0 mm 0 W/m2
22:58 7.4 °C 4.9 °C 1020.9 hPa WSW 11.3 km/h 22.5 km/h 84 % 0 mm 0 W/m2
23:03 7.4 °C 5.1 °C 1020.9 hPa WSW 12.9 km/h 19.3 km/h 85 % 0 mm 0 W/m2
23:08 7.3 °C 4.9 °C 1020.9 hPa WSW 16.1 km/h 30.6 km/h 85 % 0 mm 0 W/m2
23:13 7.3 °C 5.1 °C 1020.5 hPa WSW 14.5 km/h 24.1 km/h 86 % 0 mm 0 W/m2
23:18 7.3 °C 5.1 °C 1020.5 hPa WSW 11.3 km/h 20.9 km/h 86 % 0 mm 0 W/m2
23:23 7.3 °C 5.1 °C 1020.2 hPa WSW 11.3 km/h 19.3 km/h 86 % 0 mm 0 W/m2
23:28 7.3 °C 5.3 °C 1020.2 hPa WSW 11.3 km/h 19.3 km/h 87 % 0 mm 0 W/m2
23:33 7.3 °C 5.3 °C 1020.2 hPa SW 8 km/h 16.1 km/h 87 % 0 mm 0 W/m2
23:38 7.3 °C 5.3 °C 1020.2 hPa SW 11.3 km/h 20.9 km/h 87 % 0 mm 0 W/m2
23:43 7.3 °C 5.3 °C 1020.2 hPa SW 9.7 km/h 17.7 km/h 87 % 0 mm 0 W/m2
23:48 7.4 °C 5.6 °C 1020.2 hPa SW 8 km/h 12.9 km/h 88 % 0 mm 0 W/m2
23:53 7.4 °C 5.6 °C 1020.2 hPa SSW 4.8 km/h 11.3 km/h 88 % 0 mm 0 W/m2
23:58 7.5 °C 5.7 °C 1020.2 hPa SW 6.4 km/h 12.9 km/h 88 % 0 mm 0 W/m2
Delerius-Weather
Compliments of Weather Underground - 2.25 mb

Data updates at regular intervals.